Time;durP1;ratioP1;P1;durP2;ratioP2;P2;SDS_P1;SDS_P2;PMS_P1;PMS_P2;Temp;Humidity;BMP_temperature;BMP_pressure;BME280_temperature;BME280_humidity;BME280_pressure;Samples;Min_cycle;Max_cycle;Signal;HPM_P1;HPM_P2
2022/05/18 00:00:27;;;;;;;16.42;9.45;;;;;;;17.78;93.46;101828.28;5038213;28;20553;-86
2022/05/18 00:02:52;;;;;;;22.80;9.50;;;;;;;17.78;93.61;101833.69;5038763;28;20120;-85
2022/05/18 00:05:18;;;;;;;20.08;9.75;;;;;;;17.71;94.15;101829.00;5037858;28;20419;-86
2022/05/18 00:07:43;;;;;;;16.60;9.68;;;;;;;17.72;94.93;101821.78;5038551;28;20366;-85
2022/05/18 00:10:09;;;;;;;16.02;9.70;;;;;;;17.68;94.74;101824.00;5038231;28;20467;-85
2022/05/18 00:12:34;;;;;;;18.02;9.82;;;;;;;17.65;93.87;101823.50;5038492;28;20025;-85
2022/05/18 00:14:59;;;;;;;23.90;9.48;;;;;;;17.59;94.05;101830.50;5038168;28;20028;-85
2022/05/18 00:17:26;;;;;;;15.40;9.27;;;;;;;17.52;93.20;101826.84;5037398;28;20344;-86
2022/05/18 00:19:51;;;;;;;19.95;9.30;;;;;;;17.41;95.15;101822.72;5042652;28;20503;-85
2022/05/18 00:22:16;;;;;;;20.15;9.80;;;;;;;17.32;95.17;101830.03;5044534;28;20021;-86
2022/05/18 00:24:41;;;;;;;27.38;9.45;;;;;;;17.34;95.42;101832.56;5045564;28;20024;-85
2022/05/18 00:27:07;;;;;;;26.33;9.65;;;;;;;17.33;94.85;101833.59;5042995;28;20091;-85
2022/05/18 00:29:33;;;;;;;21.60;9.32;;;;;;;17.32;95.51;101829.22;5044178;28;20021;-86
2022/05/18 00:31:59;;;;;;;18.27;8.60;;;;;;;17.28;96.02;101830.63;5044701;28;20437;-85
2022/05/18 00:34:25;;;;;;;21.13;8.98;;;;;;;17.13;95.42;101834.09;5044636;28;20021;-85
2022/05/18 00:36:50;;;;;;;24.77;9.93;;;;;;;17.10;96.16;101834.44;5044612;28;20078;-86
2022/05/18 00:39:16;;;;;;;22.35;9.73;;;;;;;17.10;96.19;101834.44;5040948;28;20021;-84
2022/05/18 00:41:41;;;;;;;19.60;9.30;;;;;;;17.11;96.58;101833.44;5039470;28;20028;-84
2022/05/18 00:44:07;;;;;;;20.70;9.45;;;;;;;17.05;96.32;101830.59;5039924;28;20060;-84
2022/05/18 00:46:33;;;;;;;18.25;9.00;;;;;;;17.00;97.06;101831.13;5059723;28;20569;-85
2022/05/18 00:49:01;;;;;;;16.55;9.07;;;;;;;17.03;97.87;101838.88;5058872;28;20376;-85
2022/05/18 00:51:36;;;;;;;13.98;9.18;;;;;;;17.03;97.13;101836.19;5042485;28;20032;-86
2022/05/18 00:54:22;;;;;;;14.45;9.00;;;;;;;17.08;95.99;101832.97;5044498;28;20029;-85
2022/05/18 00:56:56;;;;;;;15.63;8.88;;;;;;;17.04;96.00;101831.63;5041558;28;20111;-86
2022/05/18 00:59:38;;;;;;;18.10;8.70;;;;;;;16.98;95.80;101832.34;5041327;28;20051;-86
2022/05/18 01:02:04;;;;;;;21.13;8.82;;;;;;;17.00;95.66;101833.84;5040776;28;20439;-84
2022/05/18 01:04:30;;;;;;;13.85;8.88;;;;;;;16.98;96.58;101837.75;5038097;28;20475;-84
2022/05/18 01:07:18;;;;;;;15.27;8.90;;;;;;;17.00;95.87;101833.00;5038506;28;20025;-84
2022/05/18 01:09:46;;;;;;;15.82;9.00;;;;;;;16.89;97.43;101839.66;5038759;28;20043;-84
2022/05/18 01:12:15;;;;;;;21.20;9.05;;;;;;;16.84;97.96;101836.63;5037639;28;20153;-85
2022/05/18 01:15:02;;;;;;;13.35;8.68;;;;;;;16.86;97.25;101843.56;5038428;28;20098;-85
2022/05/18 01:17:34;;;;;;;15.20;8.73;;;;;;;16.82;97.48;101838.66;5036509;28;20520;-85
2022/05/18 01:20:03;;;;;;;20.30;9.27;;;;;;;16.78;97.85;101830.94;5037343;28;20017;-85
2022/05/18 01:22:48;;;;;;;20.90;9.15;;;;;;;16.85;98.56;101841.03;5020246;28;20021;-84
2022/05/18 01:25:43;;;;;;;17.45;9.40;;;;;;;16.77;97.66;101823.03;5038154;28;20120;-84
2022/05/18 01:28:10;;;;;;;17.80;9.18;;;;;;;16.76;98.62;101838.34;5055175;28;20049;-84
2022/05/18 01:30:45;;;;;;;15.75;9.23;;;;;;;16.77;98.71;101826.53;5058598;28;20127;-85
2022/05/18 01:33:11;;;;;;;15.70;9.30;;;;;;;16.77;98.55;101834.63;5059458;28;20025;-84
2022/05/18 01:35:41;;;;;;;17.65;9.27;;;;;;;16.78;98.45;101836.34;5056944;28;20019;-85
2022/05/18 01:38:07;;;;;;;15.35;9.68;;;;;;;16.72;98.87;101834.34;5041557;28;20047;-86
2022/05/18 01:40:50;;;;;;;18.80;9.85;;;;;;;16.75;99.42;101839.38;5058530;28;20012;-85
2022/05/18 01:43:34;;;;;;;17.48;9.98;;;;;;;16.71;98.98;101832.63;5041823;28;20040;-85
2022/05/18 01:46:03;;;;;;;20.63;10.00;;;;;;;16.72;99.42;101844.28;5059596;28;20487;-85
2022/05/18 01:48:35;;;;;;;21.10;9.98;;;;;;;16.73;99.71;101835.16;5040947;28;20391;-85
2022/05/18 01:51:03;;;;;;;20.48;10.15;;;;;;;16.71;99.00;101831.81;5058353;28;20036;-85
2022/05/18 01:53:30;;;;;;;23.23;10.25;;;;;;;16.66;99.15;101826.09;5059626;28;20472;-85
2022/05/18 01:55:55;;;;;;;17.15;10.68;;;;;;;16.67;99.80;101828.63;5057688;28;20584;-86
2022/05/18 01:58:21;;;;;;;20.00;11.45;;;;;;;16.70;99.97;101827.41;5058971;28;20033;-87
2022/05/18 02:00:47;;;;;;;20.33;11.48;;;;;;;16.71;99.91;101821.03;5041155;28;20053;-85
2022/05/18 02:03:14;;;;;;;18.40;11.88;;;;;;;16.70;99.62;101827.41;5039683;28;20083;-86
2022/05/18 02:05:40;;;;;;;20.95;11.85;;;;;;;16.67;99.22;101828.63;5055212;28;20032;-84
2022/05/18 02:08:06;;;;;;;21.63;12.15;;;;;;;16.66;100.00;101840.41;5060056;28;20021;-84
2022/05/18 02:10:33;;;;;;;18.05;11.55;;;;;;;16.67;99.83;101844.81;5043115;28;20032;-84
2022/05/18 02:12:59;;;;;;;21.60;11.52;;;;;;;16.60;100.00;101831.19;5062828;28;20021;-85
2022/05/18 02:15:25;;;;;;;22.08;12.20;;;;;;;16.58;99.99;101827.84;5061124;28;20027;-85
2022/05/18 02:17:51;;;;;;;20.75;12.68;;;;;;;16.57;99.58;101831.53;5060630;28;20048;-84
2022/05/18 02:20:18;;;;;;;20.95;12.50;;;;;;;16.59;99.41;101831.38;5043140;28;20033;-85
2022/05/18 02:22:44;;;;;;;22.23;11.75;;;;;;;16.57;99.73;101836.94;5022739;28;20098;-89
2022/05/18 02:25:09;;;;;;;20.48;12.15;;;;;;;16.56;100.00;101829.00;5040738;28;20387;-86
2022/05/18 02:27:34;;;;;;;19.88;12.40;;;;;;;16.51;99.99;101831.41;5040284;28;20032;-84
2022/05/18 02:30:00;;;;;;;18.75;12.75;;;;;;;16.54;99.98;101825.66;5039181;28;20021;-84
2022/05/18 02:32:26;;;;;;;36.38;13.32;;;;;;;16.56;100.00;101821.78;5041527;28;20017;-86
2022/05/18 02:34:51;;;;;;;21.33;13.10;;;;;;;16.55;100.00;101824.66;5038453;28;20029;-85
2022/05/18 02:37:17;;;;;;;26.40;12.73;;;;;;;16.53;100.00;101824.84;5022168;28;20276;-85
2022/05/18 02:39:42;;;;;;;21.85;12.65;;;;;;;16.52;100.00;101819.63;5041452;28;20102;-85
2022/05/18 02:42:08;;;;;;;22.70;13.43;;;;;;;16.56;100.00;101824.47;5039709;28;20204;-84
2022/05/18 02:44:33;;;;;;;26.15;12.52;;;;;;;16.54;100.00;101834.59;5044065;28;20040;-85
2022/05/18 02:46:59;;;;;;;21.42;12.88;;;;;;;16.54;100.00;101833.75;5043603;28;20016;-85
2022/05/18 02:49:26;;;;;;;27.45;13.23;;;;;;;16.52;100.00;101825.84;5045467;28;20040;-85
2022/05/18 02:51:51;;;;;;;21.20;13.20;;;;;;;16.52;100.00;101835.78;5062461;28;20029;-84
2022/05/18 02:57:02;;;;;;;21.73;12.25;;;;;;;16.52;100.00;101830.41;5062531;28;20067;-87
2022/05/18 02:59:28;;;;;;;21.73;13.48;;;;;;;16.49;100.00;101817.25;5062756;28;20028;-87
2022/05/18 03:01:53;;;;;;;21.88;12.18;;;;;;;16.48;100.00;101815.56;5062150;28;20020;-86
2022/05/18 03:04:18;;;;;;;22.80;12.40;;;;;;;16.50;100.00;101821.66;5062700;28;20060;-85
2022/05/18 03:06:44;;;;;;;23.13;12.32;;;;;;;16.52;100.00;101822.31;5063448;28;20020;-86
2022/05/18 03:09:10;;;;;;;34.22;12.77;;;;;;;16.46;100.00;101831.09;5061695;28;20112;-88
2022/05/18 03:11:35;;;;;;;26.00;12.60;;;;;;;16.37;100.00;101823.03;5059888;28;20058;-87
2022/05/18 03:14:01;;;;;;;28.90;12.75;;;;;;;16.35;100.00;101829.63;5043507;28;20029;-86
2022/05/18 03:16:28;;;;;;;40.85;12.52;;;;;;;16.34;100.00;101836.03;5051427;28;20100;-86
2022/05/18 03:18:53;;;;;;;31.50;12.35;;;;;;;16.28;100.00;101837.59;5040499;28;20473;-85
2022/05/18 03:24:03;;;;;;;27.35;12.23;;;;;;;16.27;100.00;101837.75;5041104;28;20451;-86
2022/05/18 03:26:29;;;;;;;30.65;11.95;;;;;;;16.25;100.00;101856.78;5041023;28;20053;-86
2022/05/18 03:28:56;;;;;;;29.23;11.63;;;;;;;16.24;100.00;101849.72;5022623;28;20048;-86
2022/05/18 03:31:23;;;;;;;32.92;12.05;;;;;;;16.25;100.00;101848.69;5041325;28;20494;-86
2022/05/18 03:33:49;;;;;;;26.35;11.23;;;;;;;16.25;100.00;101851.41;5043795;28;20133;-86
2022/05/18 03:36:16;;;;;;;28.35;11.52;;;;;;;16.33;100.00;101864.03;5042294;28;20037;-86
2022/05/18 03:38:44;;;;;;;30.27;11.68;;;;;;;16.36;100.00;101863.66;5062301;28;20029;-87
2022/05/18 03:41:09;;;;;;;27.40;10.93;;;;;;;16.44;100.00;101865.47;5062769;28;20043;-86
2022/05/18 03:43:35;;;;;;;19.98;10.75;;;;;;;16.51;100.00;101870.00;5062714;28;20028;-86
2022/05/18 03:46:02;;;;;;;17.70;10.48;;;;;;;16.50;100.00;101867.50;5061739;28;20043;-86
2022/05/18 03:48:29;;;;;;;21.10;10.65;;;;;;;16.55;100.00;101863.25;5061975;28;20054;-85
2022/05/18 03:50:57;;;;;;;21.55;10.63;;;;;;;16.57;100.00;101865.78;5059804;28;20052;-86
2022/05/18 03:53:22;;;;;;;18.25;10.95;;;;;;;16.60;100.00;101860.03;5060438;28;20059;-84
2022/05/18 03:55:48;;;;;;;18.65;10.32;;;;;;;16.58;100.00;101859.34;5060397;28;20560;-84
2022/05/18 03:58:14;;;;;;;22.17;11.10;;;;;;;16.59;100.00;101861.03;5061506;28;20085;-84
2022/05/18 04:00:41;;;;;;;22.23;10.55;;;;;;;16.57;100.00;101868.47;5059181;28;20372;-84
2022/05/18 04:03:08;;;;;;;19.65;11.25;;;;;;;16.55;100.00;101867.81;5060034;28;20096;-84
2022/05/18 04:05:36;;;;;;;17.02;10.65;;;;;;;16.57;100.00;101868.47;5058235;28;20025;-84
2022/05/18 04:08:01;;;;;;;16.23;11.10;;;;;;;16.57;100.00;101872.00;5059254;28;20035;-86
2022/05/18 04:10:27;;;;;;;19.33;10.90;;;;;;;16.60;100.00;101868.13;5058436;28;20146;-84
2022/05/18 04:12:52;;;;;;;22.23;11.00;;;;;;;16.61;100.00;101867.09;5059500;28;20032;-84
2022/05/18 04:15:18;;;;;;;23.38;11.02;;;;;;;16.63;100.00;101859.66;5059134;28;20028;-86
2022/05/18 04:17:45;;;;;;;19.20;11.10;;;;;;;16.69;100.00;101864.34;5058259;28;20105;-84
2022/05/18 04:20:12;;;;;;;20.88;11.10;;;;;;;16.76;100.00;101868.00;5041020;28;20031;-84
2022/05/18 04:22:37;;;;;;;18.80;10.65;;;;;;;16.85;100.00;101868.00;5057878;28;20020;-84
2022/05/18 04:25:04;;;;;;;19.67;10.57;;;;;;;16.87;100.00;101880.31;5058544;28;20541;-85
2022/05/18 04:27:31;;;;;;;19.42;11.15;;;;;;;16.89;100.00;101877.44;5058182;28;20047;-85
2022/05/18 04:29:56;;;;;;;19.92;10.77;;;;;;;16.97;100.00;101880.06;5058765;28;20028;-85
2022/05/18 04:32:21;;;;;;;18.52;10.02;;;;;;;17.03;100.00;101883.94;5060721;28;20043;-88
2022/05/18 04:34:48;;;;;;;19.85;10.73;;;;;;;17.10;100.00;101888.41;5047376;28;20170;-87
2022/05/18 04:37:14;;;;;;;20.45;10.90;;;;;;;17.07;99.57;101872.59;5027329;28;20061;-86
2022/05/18 04:39:40;;;;;;;19.02;10.50;;;;;;;17.26;99.86;101882.09;5039289;28;20044;-86
2022/05/18 04:42:05;;;;;;;18.50;10.85;;;;;;;17.30;98.97;101866.38;5042585;28;20025;-86
2022/05/18 04:44:30;;;;;;;23.15;10.63;;;;;;;17.42;99.53;101877.59;5026445;28;20120;-86
2022/05/18 04:46:58;;;;;;;20.40;10.57;;;;;;;17.48;97.80;101883.09;5038734;28;20039;-85
2022/05/18 04:49:25;;;;;;;19.40;10.85;;;;;;;17.53;97.05;101904.13;5038298;28;20107;-87
2022/05/18 04:51:50;;;;;;;18.15;10.93;;;;;;;17.48;96.63;101888.50;5037296;28;20139;-87
2022/05/18 04:54:15;;;;;;;19.73;10.45;;;;;;;17.46;97.28;101897.78;5039713;28;20127;-87
2022/05/18 04:56:41;;;;;;;20.45;11.27;;;;;;;17.49;96.77;101905.53;5037824;28;20234;-85
2022/05/18 04:59:06;;;;;;;17.75;10.77;;;;;;;17.50;97.18;101907.22;5048262;28;20029;-86
2022/05/18 05:01:34;;;;;;;24.63;11.18;;;;;;;17.47;97.05;101915.69;5058997;28;20028;-86
2022/05/18 05:04:00;;;;;;;15.73;10.70;;;;;;;17.44;96.92;101916.88;5061257;28;20020;-86
2022/05/18 05:06:25;;;;;;;20.13;10.63;;;;;;;17.46;97.22;101909.44;5040369;28;20024;-85
2022/05/18 05:08:50;;;;;;;19.85;9.77;;;;;;;17.49;96.77;101913.63;5054824;28;20040;-86
2022/05/18 05:11:16;;;;;;;19.67;10.93;;;;;;;17.53;96.56;101915.81;5038236;28;20040;-87
2022/05/18 05:13:41;;;;;;;24.23;10.73;;;;;;;17.61;96.40;101919.47;5040551;28;20693;-86
2022/05/18 05:16:09;;;;;;;20.08;10.25;;;;;;;17.76;96.93;101923.03;5041858;28;20025;-85
2022/05/18 05:18:35;;;;;;;22.38;10.23;;;;;;;17.93;95.22;101912.13;5041342;28;20135;-85
2022/05/18 05:21:01;;;;;;;15.43;9.93;;;;;;;18.02;93.85;101909.13;5041193;28;20048;-85
2022/05/18 05:23:27;;;;;;;22.27;9.95;;;;;;;18.16;92.29;101918.31;5040365;28;20090;-86
2022/05/18 05:25:54;;;;;;;16.75;9.73;;;;;;;18.25;92.48;101925.28;5020343;28;20036;-86
2022/05/18 05:28:20;;;;;;;17.52;10.02;;;;;;;18.36;91.50;101937.50;5035765;28;20131;-85
2022/05/18 05:30:46;;;;;;;17.38;10.13;;;;;;;18.40;91.09;101928.00;5040347;28;20056;-86
2022/05/18 05:33:11;;;;;;;22.77;9.88;;;;;;;18.49;90.68;101939.56;5040373;28;20029;-84
2022/05/18 05:35:41;;;;;;;21.77;10.23;;;;;;;18.54;89.55;101939.00;5038460;28;20552;-86
2022/05/18 05:38:07;;;;;;;16.45;9.27;;;;;;;18.55;90.17;101930.72;5041066;28;20025;-86
2022/05/18 05:40:33;;;;;;;17.95;9.82;;;;;;;18.66;89.69;101944.78;5020472;28;20059;-86
2022/05/18 05:42:58;;;;;;;18.60;10.43;;;;;;;18.74;88.62;101944.69;5041061;28;20024;-87
2022/05/18 05:45:24;;;;;;;16.83;10.15;;;;;;;18.77;88.07;101950.56;5051952;28;20036;-85
2022/05/18 05:47:49;;;;;;;16.52;10.43;;;;;;;18.85;87.67;101952.34;5046320;28;20495;-88
2022/05/18 05:50:15;;;;;;;20.65;9.82;;;;;;;18.91;88.07;101951.59;5055532;28;20025;-84
2022/05/18 05:52:41;;;;;;;20.52;9.23;;;;;;;18.99;86.29;101954.22;5060009;28;20344;-84
2022/05/18 05:55:07;;;;;;;14.55;8.70;;;;;;;19.09;86.77;101953.88;5055043;28;20303;-84
2022/05/18 05:57:32;;;;;;;14.38;7.70;;;;;;;19.16;85.23;101953.97;5052502;28;20487;-85
2022/05/18 05:59:59;;;;;;;20.48;8.15;;;;;;;19.22;85.57;101958.63;5051831;28;20067;-84
2022/05/18 06:02:25;;;;;;;18.15;7.70;;;;;;;19.30;84.54;101963.09;5042934;28;20044;-84
2022/05/18 06:04:50;;;;;;;16.08;7.20;;;;;;;19.43;84.19;101962.38;5050512;28;20037;-84
2022/05/18 06:07:15;;;;;;;24.45;7.78;;;;;;;19.51;83.25;101963.09;5065008;28;20024;-84
2022/05/18 06:09:41;;;;;;;15.50;7.38;;;;;;;19.57;82.65;101964.22;5063899;28;20034;-84
2022/05/18 06:12:07;;;;;;;16.98;6.85;;;;;;;19.64;83.09;101969.69;5060677;28;20123;-84
2022/05/18 06:14:33;;;;;;;17.00;6.63;;;;;;;19.67;81.60;101963.88;5059257;28;20032;-84
2022/05/18 06:16:58;;;;;;;11.32;6.68;;;;;;;19.74;80.93;101973.78;5055238;28;20048;-85
2022/05/18 06:19:24;;;;;;;14.05;6.97;;;;;;;19.76;81.41;101976.31;5059605;28;20020;-85
2022/05/18 06:21:50;;;;;;;13.75;6.90;;;;;;;19.78;82.58;101979.66;5059739;28;20098;-84
2022/05/18 06:24:16;;;;;;;13.07;6.80;;;;;;;19.80;81.92;101988.41;5042110;28;20376;-84
2022/05/18 06:26:43;;;;;;;15.07;6.88;;;;;;;19.79;81.92;101984.03;5061936;28;20098;-87
2022/05/18 06:29:09;;;;;;;16.73;7.20;;;;;;;19.73;81.78;101991.03;5054210;28;20402;-86
2022/05/18 06:31:34;;;;;;;16.55;6.70;;;;;;;19.79;82.58;101999.44;5057822;28;20119;-86
2022/05/18 06:33:59;;;;;;;16.65;6.55;;;;;;;19.75;81.93;101985.44;5051322;28;20426;-86
2022/05/18 06:36:25;;;;;;;15.10;6.65;;;;;;;19.79;81.52;102004.88;5040567;28;20025;-86
2022/05/18 06:38:50;;;;;;;15.45;6.82;;;;;;;19.81;81.15;102006.38;5047263;28;20012;-84
2022/05/18 06:41:22;;;;;;;12.75;6.43;;;;;;;19.81;81.40;102008.25;5061115;28;20027;-84
2022/05/18 06:43:56;;;;;;;10.40;6.22;;;;;;;19.77;81.33;102004.22;5044876;28;20523;-85
2022/05/18 06:46:22;;;;;;;14.50;6.93;;;;;;;19.75;82.54;102013.41;5042664;28;20115;-84
2022/05/18 06:48:48;;;;;;;16.10;6.78;;;;;;;19.73;83.12;102015.44;5042851;28;20538;-84
2022/05/18 06:51:20;;;;;;;12.82;6.63;;;;;;;19.73;83.06;102009.19;5041889;28;20048;-85
2022/05/18 06:53:53;;;;;;;17.92;7.40;;;;;;;19.71;83.48;102006.66;5041377;28;20029;-85
2022/05/18 06:56:23;;;;;;;19.48;7.72;;;;;;;19.73;83.63;102018.13;5041725;28;20368;-85
2022/05/18 06:58:49;;;;;;;16.83;7.22;;;;;;;19.74;84.43;102016.28;5043663;28;20033;-83
2022/05/18 07:01:15;;;;;;;19.60;8.10;;;;;;;19.74;83.44;102017.16;5044470;28;20028;-85
2022/05/18 07:03:41;;;;;;;15.10;8.38;;;;;;;19.86;83.92;102020.19;5045028;28;20025;-86
2022/05/18 07:06:08;;;;;;;21.73;8.80;;;;;;;19.99;82.44;102019.44;5057228;28;20086;-85
2022/05/18 07:08:33;;;;;;;19.45;9.32;;;;;;;20.11;81.40;102019.75;5061613;28;20016;-85
2022/05/18 07:10:59;;;;;;;27.42;9.75;;;;;;;20.26;81.56;102025.09;5061554;28;20106;-86
2022/05/18 07:13:25;;;;;;;20.27;9.63;;;;;;;20.50;79.70;102030.09;5062509;28;20082;-85
2022/05/18 07:15:50;;;;;;;19.20;10.15;;;;;;;20.66;77.90;102028.13;5062236;28;20017;-84
2022/05/18 07:18:15;;;;;;;23.40;11.43;;;;;;;20.86;75.57;102034.53;5062334;28;20044;-86
2022/05/18 07:20:41;;;;;;;21.60;11.52;;;;;;;21.12;75.64;102034.84;5061801;28;20028;-85
2022/05/18 07:23:07;;;;;;;24.33;11.50;;;;;;;21.23;74.04;102040.56;5061979;28;20051;-85
2022/05/18 07:25:32;;;;;;;25.38;12.18;;;;;;;21.32;72.13;102038.50;5058949;28;20040;-84
2022/05/18 07:27:58;;;;;;;22.42;11.98;;;;;;;21.53;72.25;102037.53;5060665;28;20301;-85
2022/05/18 07:30:23;;;;;;;24.95;11.60;;;;;;;21.66;71.50;102041.34;5040396;28;20073;-84
2022/05/18 07:32:48;;;;;;;19.38;10.73;;;;;;;21.87;71.96;102030.28;5058191;28;20033;-84
2022/05/18 07:35:14;;;;;;;21.45;11.35;;;;;;;22.01;71.48;102038.44;5059716;28;20020;-86
2022/05/18 07:37:39;;;;;;;27.80;11.10;;;;;;;22.27;71.24;102024.84;5060037;28;20028;-85
2022/05/18 07:40:06;;;;;;;24.15;9.80;;;;;;;22.61;70.74;102031.13;5059790;28;20183;-86
2022/05/18 07:42:32;;;;;;;17.73;9.63;;;;;;;22.61;70.04;102027.56;5058657;28;20134;-84
2022/05/18 07:44:57;;;;;;;19.65;9.60;;;;;;;22.60;69.54;102032.16;5047317;28;20131;-85
2022/05/18 07:47:32;;;;;;;23.83;9.90;;;;;;;22.68;70.63;102040.09;5039139;28;20438;-84
2022/05/18 07:49:58;;;;;;;18.02;9.18;;;;;;;22.57;70.10;102043.47;5039046;28;20029;-83
2022/05/18 07:52:24;;;;;;;22.77;9.70;;;;;;;22.45;71.34;102046.00;5039059;28;20339;-84
2022/05/18 07:54:50;;;;;;;21.92;9.27;;;;;;;22.52;71.76;102052.28;5040547;28;20048;-84
2022/05/18 07:57:16;;;;;;;17.58;9.50;;;;;;;22.56;71.03;102052.69;5040344;28;20019;-84
2022/05/18 07:59:41;;;;;;;18.73;9.88;;;;;;;22.46;70.69;102049.56;5059644;28;20032;-83
2022/05/18 08:02:07;;;;;;;17.98;10.02;;;;;;;22.44;71.15;102049.78;5059600;28;20012;-84
2022/05/18 08:04:32;;;;;;;23.35;10.57;;;;;;;22.42;72.14;102053.75;5040989;28;20085;-84
2022/05/18 08:06:58;;;;;;;21.15;10.85;;;;;;;22.30;71.27;102057.13;5042075;28;20431;-84
2022/05/18 08:09:23;;;;;;;18.95;10.80;;;;;;;22.31;72.65;102069.66;5037773;28;20087;-84
2022/05/18 08:17:21;;;;;;;23.92;11.65;;;;;;;22.17;74.08;102052.47;5057654;28;20470;-87
2022/05/18 08:19:46;;;;;;;23.40;11.52;;;;;;;22.37;75.46;102059.00;5074144;28;20043;-89
2022/05/18 08:22:13;;;;;;;22.67;11.50;;;;;;;22.69;74.88;102055.41;5059680;28;20123;-86
2022/05/18 08:24:39;;;;;;;19.30;11.38;;;;;;;22.97;72.66;102051.56;5051838;28;20021;-87
2022/05/18 08:27:06;;;;;;;17.10;10.55;;;;;;;23.07;71.99;102053.88;5044144;28;20377;-86
2022/05/18 08:29:31;;;;;;;27.98;10.60;;;;;;;22.93;70.72;102061.22;5057072;28;20025;-87
2022/05/18 08:31:57;;;;;;;22.98;11.55;;;;;;;22.81;72.07;102062.91;5043095;28;20438;-86
2022/05/18 08:34:22;;;;;;;19.55;11.43;;;;;;;22.67;72.99;102064.81;5049185;28;20472;-87
2022/05/18 08:36:49;;;;;;;17.75;10.43;;;;;;;22.69;74.01;102063.59;5035022;28;20036;-87
2022/05/18 08:39:14;;;;;;;23.98;11.00;;;;;;;22.83;72.53;102069.84;5038754;28;20020;-83
2022/05/18 08:41:45;;;;;;;22.77;11.77;;;;;;;22.93;72.30;102074.84;5057701;28;20090;-84
2022/05/18 08:44:23;;;;;;;21.95;11.30;;;;;;;23.13;72.81;102076.69;5059533;28;20094;-84
2022/05/18 08:47:09;;;;;;;17.10;10.95;;;;;;;23.30;72.53;102083.31;5058816;28;20032;-84
2022/05/18 08:49:57;;;;;;;22.25;11.38;;;;;;;23.58;71.87;102074.81;5058438;28;20024;-83
2022/05/18 08:52:28;;;;;;;20.35;10.95;;;;;;;23.75;71.11;102079.75;5055826;28;20029;-82
2022/05/18 08:55:08;;;;;;;20.88;11.75;;;;;;;23.88;70.35;102071.53;5056965;28;20479;-85
2022/05/18 08:57:40;;;;;;;29.67;12.00;;;;;;;24.14;69.34;102080.56;5058233;28;20104;-85
2022/05/18 09:00:17;;;;;;;23.70;11.43;;;;;;;24.45;70.18;102079.66;5058470;28;20545;-88
2022/05/18 09:02:44;;;;;;;20.73;11.38;;;;;;;24.54;66.60;102080.22;5059702;28;20012;-86
2022/05/18 09:05:32;;;;;;;18.50;12.07;;;;;;;24.62;67.87;102070.94;5039607;28;20028;-86
2022/05/18 09:08:10;;;;;;;24.13;11.50;;;;;;;24.85;66.66;102089.41;5038810;28;20046;-86
2022/05/18 09:10:44;;;;;;;21.33;11.18;;;;;;;24.95;65.54;102079.63;5037187;28;20067;-86
2022/05/18 09:13:09;;;;;;;25.90;10.82;;;;;;;25.01;64.05;102071.56;5030170;28;20436;-86
2022/05/18 09:15:54;;;;;;;14.48;4.90;;;;;;;25.03;60.72;102072.19;5058254;28;20521;-86
2022/05/18 09:18:45;;;;;;;13.95;4.13;;;;;;;24.82;59.70;102082.50;5054377;28;20078;-86
2022/05/18 09:21:21;;;;;;;8.40;4.70;;;;;;;24.81;61.31;102080.00;5055355;28;20207;-86
2022/05/18 09:24:11;;;;;;;9.93;4.68;;;;;;;25.16;61.51;102077.50;5056917;28;20031;-86
2022/05/18 09:26:45;;;;;;;8.13;4.55;;;;;;;25.48;60.87;102082.81;5051184;28;20460;-86
2022/05/18 09:29:49;;;;;;;11.60;5.15;;;;;;;25.21;60.17;102083.09;5053662;28;20016;-85
2022/05/18 09:32:36;;;;;;;11.30;5.47;;;;;;;24.85;62.04;102084.78;5015435;28;20045;-86
2022/05/18 09:35:22;;;;;;;20.92;6.22;;;;;;;24.75;63.35;102081.75;5013891;28;20499;-86
2022/05/18 09:38:01;;;;;;;18.55;4.90;;;;;;;24.76;64.37;102089.72;5032521;28;20591;-86
2022/05/18 09:40:32;;;;;;;12.05;4.22;;;;;;;25.00;62.93;102083.56;5019917;28;20025;-86
2022/05/18 09:43:10;;;;;;;7.03;2.92;;;;;;;25.05;59.76;102089.19;5039054;28;20067;-86
2022/05/18 09:45:38;;;;;;;8.60;3.95;;;;;;;25.07;59.24;102095.28;5038787;28;20143;-85
2022/05/18 09:48:09;;;;;;;6.25;3.42;;;;;;;25.12;59.65;102087.22;5038904;28;20039;-86
2022/05/18 09:50:42;;;;;;;8.65;4.05;;;;;;;25.06;60.00;102086.22;5036927;28;20021;-84
2022/05/18 09:53:08;;;;;;;8.23;3.60;;;;;;;25.09;59.67;102090.41;5038764;28;20033;-86
2022/05/18 09:55:34;;;;;;;8.18;3.70;;;;;;;25.12;60.14;102093.53;5038323;28;20090;-86
2022/05/18 09:58:08;;;;;;;9.35;3.38;;;;;;;25.16;60.55;102091.16;5039244;28;20040;-84
2022/05/18 10:00:36;;;;;;;7.18;2.70;;;;;;;25.19;57.31;102087.97;5039602;28;20113;-84
2022/05/18 10:08:58;;;;;;;5.75;2.20;;;;;;;25.60;55.64;102099.28;5013734;28;20094;-85
2022/05/18 10:11:32;;;;;;;5.68;2.20;;;;;;;25.62;56.31;102087.00;5037659;28;20029;-86
2022/05/18 10:14:17;;;;;;;6.53;1.60;;;;;;;25.80;54.04;102090.78;5037789;28;20495;-84
2022/05/18 10:17:01;;;;;;;4.30;1.48;;;;;;;25.87;55.49;102078.66;5057779;28;20040;-85
2022/05/18 10:19:32;;;;;;;8.68;2.60;;;;;;;25.99;53.83;102088.84;5056527;28;20032;-86
2022/05/18 10:22:03;;;;;;;5.53;2.10;;;;;;;26.11;54.28;102080.66;5057310;28;20134;-85
2022/05/18 10:24:46;;;;;;;5.47;1.90;;;;;;;26.17;54.13;102083.28;5055602;28;20028;-84
2022/05/18 10:27:14;;;;;;;3.78;1.90;;;;;;;26.31;54.84;102088.53;5057177;28;20047;-84
2022/05/18 10:29:49;;;;;;;6.88;2.10;;;;;;;26.44;54.45;102082.81;5056673;28;20052;-87
2022/05/18 10:32:27;;;;;;;5.05;1.98;;;;;;;26.56;53.42;102091.03;5060873;28;20428;-87
2022/05/18 10:34:54;;;;;;;6.63;2.47;;;;;;;26.49;51.32;102082.94;5042059;28;20427;-88
2022/05/18 10:37:30;;;;;;;7.47;2.40;;;;;;;26.60;52.57;102084.84;5021475;28;20104;-86
2022/05/18 10:40:02;;;;;;;5.68;2.10;;;;;;;26.68;51.61;102077.38;5037236;28;20032;-87
2022/05/18 10:42:42;;;;;;;5.22;1.70;;;;;;;27.00;51.27;102069.56;5041990;28;20484;-87
2022/05/18 10:45:25;;;;;;;7.55;2.63;;;;;;;27.03;50.60;102079.25;5043317;28;20086;-87
2022/05/18 10:47:52;;;;;;;7.25;2.47;;;;;;;26.75;49.91;102076.19;5023575;28;20071;-86
2022/05/18 10:50:32;;;;;;;10.90;2.13;;;;;;;26.79;54.24;102074.63;5042511;28;20043;-87
2022/05/18 10:53:00;;;;;;;;;;;;;;;27.07;50.98;102075.78;5043943;28;20108;-86
2022/05/18 10:55:28;;;;;;;11.57;2.42;;;;;;;26.82;49.87;102061.50;5036438;28;19908;-86
2022/05/18 10:58:00;;;;;;;6.32;2.30;;;;;;;26.68;50.13;102072.75;5064962;28;20021;-86
2022/05/18 11:01:00;;;;;;;5.78;2.13;;;;;;;26.89;50.90;102065.78;5065367;28;20040;-86
2022/05/18 11:03:41;;;;;;;7.10;2.20;;;;;;;26.66;49.55;102074.88;5049168;28;20368;-85
2022/05/18 11:06:27;;;;;;;5.68;2.28;;;;;;;26.86;51.45;102070.94;5070685;28;20020;-87
2022/05/18 11:08:56;;;;;;;4.68;2.13;;;;;;;27.20;52.50;102073.81;5068029;28;20095;-86
2022/05/18 11:11:52;;;;;;;5.78;2.28;;;;;;;27.44;50.97;102074.59;5072869;28;20035;-85
2022/05/18 11:14:46;;;;;;;7.15;2.40;;;;;;;27.47;49.93;102074.13;5074482;28;20572;-83
2022/05/18 11:17:49;;;;;;;6.38;2.35;;;;;;;27.47;49.40;102069.47;5071552;28;20080;-86
2022/05/18 11:20:37;;;;;;;8.65;3.35;;;;;;;27.42;49.67;102065.78;5065912;28;20063;-85
2022/05/18 11:23:17;;;;;;;13.68;2.83;;;;;;;27.45;50.00;102066.13;5053066;28;20036;-86
2022/05/18 11:25:55;;;;;;;12.95;3.13;;;;;;;27.25;51.69;102061.03;5039442;28;20474;-87
2022/05/18 11:28:55;;;;;;;4.70;2.78;;;;;;;27.26;50.58;102059.97;5043224;28;20039;-86
2022/05/18 11:31:37;;;;;;;5.40;2.47;;;;;;;27.49;51.07;102063.72;5056179;28;20039;-87
2022/05/18 11:34:24;;;;;;;7.10;2.78;;;;;;;27.52;49.82;102057.75;5061950;28;20107;-87
2022/05/18 11:37:13;;;;;;;9.82;3.05;;;;;;;27.87;49.97;102056.75;5054342;28;20036;-84
2022/05/18 11:40:05;;;;;;;7.67;3.10;;;;;;;27.83;48.29;102056.38;5048918;28;20104;-84
2022/05/18 11:42:33;;;;;;;8.00;3.17;;;;;;;27.96;47.95;102052.53;5051202;28;20463;-86